Time;durP1;ratioP1;P1;durP2;ratioP2;P2;SDS_P1;SDS_P2;PMS_P1;PMS_P2;Temp;Humidity;BMP_temperature;BMP_pressure;BME280_temperature;BME280_humidity;BME280_pressure;Samples;Min_cycle;Max_cycle;Signal;HPM_P1;HPM_P2
2023/01/13 09:43:52;;;;;;;35.17;23.87;;;11.10;1.00;;;;;;4978295;28;20093;-49
2023/01/13 09:49:43;;;;;;;34.95;25.30;;;11.00;1.00;;;;;;4972848;28;20217;-46
2023/01/13 09:52:23;;;;;;;36.70;25.27;;;11.00;1.00;;;;;;4954952;28;20134;-43
2023/01/13 09:55:12;;;;;;;36.50;23.90;;;10.90;1.00;;;;;;4966232;28;20046;-44
2023/01/13 09:57:38;;;;;;;39.60;24.70;;;11.00;1.00;;;;;;4972856;28;20412;-43
2023/01/13 10:00:12;;;;;;;33.90;23.57;;;11.00;1.00;;;;;;4973329;28;20027;-43
2023/01/13 10:02:57;;;;;;;38.97;25.13;;;11.10;1.00;;;;;;4973150;28;20026;-43
2023/01/13 10:05:43;;;;;;;34.35;23.00;;;11.20;1.00;;;;;;4973321;28;20259;-46
2023/01/13 10:08:16;;;;;;;35.70;23.95;;;11.20;1.00;;;;;;4972886;28;20035;-45
2023/01/13 10:10:54;;;;;;;35.35;23.92;;;11.20;1.00;;;;;;4970394;28;20058;-44
2023/01/13 10:13:23;;;;;;;35.10;24.27;;;11.30;1.00;;;;;;4972657;28;20565;-44
2023/01/13 10:15:58;;;;;;;33.58;24.50;;;11.40;1.00;;;;;;4973013;28;20078;-44
2023/01/13 10:19:01;;;;;;;41.97;24.90;;;11.30;1.00;;;;;;4973141;28;20133;-44
2023/01/13 10:22:03;;;;;;;35.57;23.30;;;11.40;1.00;;;;;;4972739;28;20041;-45
2023/01/13 10:25:19;;;;;;;33.08;22.75;;;11.40;1.00;;;;;;4972817;28;20031;-44
2023/01/13 10:27:48;;;;;;;29.90;22.85;;;11.40;1.00;;;;;;4922204;28;20043;-44
2023/01/13 10:30:30;;;;;;;33.20;23.35;;;11.40;1.00;;;;;;4955627;28;20041;-45
2023/01/13 10:32:56;;;;;;;33.30;23.30;;;11.50;1.00;;;;;;4973119;28;20355;-43
2023/01/13 10:35:51;;;;;;;36.10;24.17;;;11.40;1.00;;;;;;4972765;28;20121;-45
2023/01/13 10:38:27;;;;;;;33.45;22.05;;;11.40;1.00;;;;;;4960689;28;20496;-46
2023/01/13 10:40:58;;;;;;;31.88;22.17;;;11.60;1.00;;;;;;4969726;28;20022;-45
2023/01/13 10:43:25;;;;;;;32.50;24.25;;;11.40;1.00;;;;;;4942050;29;20461;-47
2023/01/13 10:46:04;;;;;;;35.42;24.48;;;11.50;1.00;;;;;;4986915;28;20046;-50
2023/01/13 10:48:40;;;;;;;32.45;24.30;;;11.60;1.00;;;;;;4979342;28;21699;-45
2023/01/13 10:51:19;;;;;;;33.10;24.95;;;11.40;1.00;;;;;;4992211;28;20077;-45
2023/01/13 10:54:00;;;;;;;33.17;24.55;;;11.50;1.00;;;;;;4976505;28;20436;-43
2023/01/13 10:56:43;;;;;;;37.05;26.38;;;11.40;1.00;;;;;;4980764;28;20034;-45
2023/01/13 10:59:12;;;;;;;33.53;24.35;;;11.50;1.00;;;;;;4990710;28;20117;-46
2023/01/13 11:01:39;;;;;;;38.70;25.70;;;11.60;1.00;;;;;;4984649;28;20102;-47
2023/01/13 11:04:35;;;;;;;37.85;24.95;;;11.60;1.00;;;;;;5013915;28;20018;-46
2023/01/13 11:07:03;;;;;;;33.53;24.33;;;11.60;1.00;;;;;;5014817;28;20030;-46
2023/01/13 11:09:30;;;;;;;34.80;25.17;;;11.70;1.00;;;;;;5015163;28;20080;-47
2023/01/13 11:11:57;;;;;;;40.70;28.58;;;11.60;1.00;;;;;;5018809;28;20045;-45
2023/01/13 11:14:38;;;;;;;30.98;24.65;;;11.70;1.00;;;;;;4997731;28;20084;-47
2023/01/13 11:17:24;;;;;;;34.97;25.33;;;11.70;1.00;;;;;;4996103;28;20355;-45
2023/01/13 11:20:08;;;;;;;32.97;25.08;;;11.50;1.00;;;;;;4999586;28;20486;-47
2023/01/13 11:22:50;;;;;;;34.45;25.13;;;11.50;1.00;;;;;;5017354;28;20072;-47
2023/01/13 11:25:32;;;;;;;38.50;25.33;;;11.50;1.00;;;;;;5015090;28;20124;-44
2023/01/13 11:28:18;;;;;;;37.38;24.67;;;11.40;1.00;;;;;;5012409;28;20034;-44
2023/01/13 11:31:21;;;;;;;37.55;25.38;;;11.50;1.00;;;;;;5014876;28;20071;-45
2023/01/13 11:34:03;;;;;;;35.95;25.35;;;11.70;1.00;;;;;;5008642;28;20194;-54
2023/01/13 11:36:38;;;;;;;33.45;24.23;;;11.50;1.00;;;;;;5016571;28;20025;-48
2023/01/13 11:39:16;;;;;;;40.30;26.23;;;11.50;1.00;;;;;;5013572;28;20014;-46
2023/01/13 11:41:46;;;;;;;34.38;25.90;;;11.60;1.00;;;;;;5014509;28;20088;-46
2023/01/13 11:44:47;;;;;;;37.28;26.42;;;11.60;1.00;;;;;;5013860;28;20034;-50
2023/01/13 11:47:14;;;;;;;40.08;25.73;;;11.60;1.00;;;;;;5005685;28;20039;-46
2023/01/13 11:49:41;;;;;;;39.83;27.48;;;11.40;1.00;;;;;;5013595;28;20022;-48
2023/01/13 11:52:26;;;;;;;37.08;27.00;;;11.60;1.00;;;;;;5015734;28;20490;-49
2023/01/13 11:55:00;;;;;;;33.13;26.45;;;11.70;1.00;;;;;;5013872;28;20014;-48
2023/01/13 11:57:49;;;;;;;34.10;26.95;;;11.90;1.00;;;;;;5013696;28;20076;-50
2023/01/13 12:00:27;;;;;;;28.42;25.05;;;11.80;1.00;;;;;;5014129;28;20055;-47
2023/01/13 12:03:19;;;;;;;32.55;26.13;;;11.80;1.00;;;;;;5011574;28;20037;-45
2023/01/13 12:05:58;;;;;;;35.92;27.13;;;11.80;1.00;;;;;;5012248;28;20021;-47
2023/01/13 12:08:54;;;;;;;32.72;26.25;;;11.50;1.00;;;;;;5016430;28;20410;-45
2023/01/13 12:14:50;;;;;;;35.55;26.17;;;11.50;1.00;;;;;;4996922;28;20045;-45
2023/01/13 12:17:29;;;;;;;35.05;25.52;;;11.40;1.00;;;;;;5014090;28;20041;-45
2023/01/13 12:19:55;;;;;;;36.25;26.30;;;11.40;1.00;;;;;;5011285;28;20022;-45
2023/01/13 12:22:33;;;;;;;37.55;27.02;;;11.40;1.00;;;;;;5015004;28;20078;-45
2023/01/13 12:25:17;;;;;;;38.13;27.63;;;11.40;1.00;;;;;;5016199;28;20124;-45
2023/01/13 12:27:53;;;;;;;37.38;27.83;;;11.50;1.00;;;;;;5016723;28;20014;-44
2023/01/13 12:30:19;;;;;;;31.88;25.58;;;11.50;1.00;;;;;;5010597;28;20115;-45
2023/01/13 12:32:46;;;;;;;40.33;27.50;;;11.60;1.00;;;;;;5013540;28;20494;-45
2023/01/13 12:35:57;;;;;;;33.35;25.70;;;11.70;1.00;;;;;;5012619;28;20048;-45
2023/01/13 12:38:39;;;;;;;37.88;26.20;;;11.80;1.00;;;;;;4932689;29;20036;-46
2023/01/13 12:41:34;;;;;;;30.70;25.02;;;11.70;1.00;;;;;;5011149;28;20084;-46
2023/01/13 12:44:19;;;;;;;31.02;26.23;;;11.60;1.00;;;;;;5015516;28;20046;-47
2023/01/13 12:46:51;;;;;;;36.45;26.45;;;11.50;1.00;;;;;;5012294;28;20014;-45
2023/01/13 12:49:35;;;;;;;39.70;29.42;;;11.40;1.00;;;;;;5013863;28;20029;-50
2023/01/13 12:52:06;;;;;;;40.60;28.85;;;11.30;1.00;;;;;;5011191;28;20028;-53
2023/01/13 12:54:43;;;;;;;33.20;27.70;;;11.30;1.00;;;;;;5014176;28;20486;-50
2023/01/13 12:57:25;;;;;;;37.63;28.83;;;11.40;1.00;;;;;;5013067;28;20029;-51
2023/01/13 13:00:13;;;;;;;38.60;28.15;;;11.30;1.00;;;;;;5016485;28;20025;-60
2023/01/13 13:02:40;;;;;;;36.20;28.30;;;11.30;1.00;;;;;;5013883;28;20043;-52
2023/01/13 13:05:24;;;;;;;39.03;28.52;;;11.30;1.00;;;;;;5013626;28;20483;-51
2023/01/13 13:08:16;;;;;;;42.33;30.58;;;11.40;1.00;;;;;;5012610;28;20363;-53
2023/01/13 13:11:02;;;;;;;40.60;30.65;;;11.70;1.00;;;;;;4969588;28;20163;-52
2023/01/13 13:13:47;;;;;;;37.10;29.20;;;11.80;1.00;;;;;;5010283;28;20356;-50
2023/01/13 13:16:25;;;;;;;41.35;31.45;;;12.00;1.00;;;;;;5011563;28;20112;-50
2023/01/13 13:18:51;;;;;;;38.65;30.33;;;12.00;1.00;;;;;;5013087;28;20021;-54
2023/01/13 13:21:17;;;;;;;37.72;33.58;;;11.90;1.00;;;;;;5012656;28;20033;-51
2023/01/13 13:24:03;;;;;;;39.33;32.08;;;12.00;1.00;;;;;;5013000;28;20034;-50
2023/01/13 13:26:36;;;;;;;42.83;34.80;;;11.80;1.00;;;;;;4993313;28;20389;-50
2023/01/13 13:29:38;;;;;;;39.95;33.83;;;12.00;1.00;;;;;;5011672;28;20037;-51
2023/01/13 13:32:13;;;;;;;46.00;35.25;;;12.00;1.00;;;;;;5005125;28;20028;-56
2023/01/13 13:34:41;;;;;;;38.03;33.65;;;12.00;1.00;;;;;;5012501;28;20026;-50
2023/01/13 13:37:27;;;;;;;41.95;35.45;;;11.90;1.00;;;;;;5010623;28;20037;-52
2023/01/13 13:48:20;;;;;;;43.05;35.30;;;12.30;1.00;;;;;;5012981;28;20415;-51
2023/01/13 13:50:48;;;;;;;44.03;34.97;;;12.30;1.00;;;;;;5012383;28;20033;-51
2023/01/13 13:53:14;;;;;;;41.92;34.92;;;12.30;1.00;;;;;;5012438;28;20447;-51
2023/01/13 13:56:00;;;;;;;38.47;32.22;;;12.10;1.00;;;;;;5011986;28;21717;-50
2023/01/13 13:58:32;;;;;;;39.40;33.95;;;11.90;1.00;;;;;;5012520;28;20025;-53
2023/01/13 14:00:59;;;;;;;39.70;34.03;;;11.90;1.00;;;;;;5012326;28;20497;-50
2023/01/13 14:03:29;;;;;;;43.10;35.08;;;11.90;1.00;;;;;;4994672;28;20137;-49
2023/01/13 14:06:01;;;;;;;46.13;38.42;;;11.90;1.00;;;;;;4994379;28;20045;-50
2023/01/13 14:08:29;;;;;;;51.55;39.40;;;11.90;1.00;;;;;;5012305;28;20053;-50
2023/01/13 14:10:55;;;;;;;52.55;40.35;;;11.80;1.00;;;;;;5012224;28;20430;-53
2023/01/13 14:13:25;;;;;;;43.83;37.38;;;11.80;1.00;;;;;;5012120;28;20030;-51
2023/01/13 14:15:55;;;;;;;48.47;39.78;;;11.80;1.00;;;;;;5011947;28;20550;-50
2023/01/13 14:18:22;;;;;;;46.60;39.72;;;11.70;1.00;;;;;;4994061;28;20061;-54
2023/01/13 14:21:00;;;;;;;49.78;41.67;;;11.70;1.00;;;;;;5012019;28;20418;-53
2023/01/13 14:23:29;;;;;;;46.42;40.47;;;11.80;1.00;;;;;;5012128;28;20022;-54
2023/01/13 14:25:59;;;;;;;50.63;41.63;;;11.80;1.00;;;;;;5011788;28;20087;-51
2023/01/13 14:28:32;;;;;;;50.88;41.63;;;11.80;1.00;;;;;;5011840;28;20537;-53
2023/01/13 14:30:59;;;;;;;48.97;38.95;;;11.70;1.00;;;;;;4999169;28;20030;-52
2023/01/13 14:33:45;;;;;;;52.17;43.83;;;11.60;1.00;;;;;;4994020;28;20418;-52
2023/01/13 14:36:21;;;;;;;49.28;40.10;;;11.60;1.00;;;;;;5000281;28;20022;-50
2023/01/13 14:39:03;;;;;;;46.53;39.95;;;11.50;1.00;;;;;;5014981;28;20033;-53
2023/01/13 14:41:40;;;;;;;45.38;39.97;;;11.50;1.00;;;;;;5016244;28;20398;-54
2023/01/13 14:44:26;;;;;;;49.60;41.65;;;11.40;1.00;;;;;;5011798;28;20459;-56
2023/01/13 14:46:55;;;;;;;54.75;40.72;;;11.50;1.00;;;;;;5015076;28;20071;-55
2023/01/13 14:49:38;;;;;;;46.17;39.70;;;11.50;1.00;;;;;;5015015;28;20042;-55
2023/01/13 14:52:21;;;;;;;48.20;39.55;;;11.40;1.00;;;;;;5008822;28;20026;-55
2023/01/13 14:54:52;;;;;;;45.17;39.65;;;11.40;1.00;;;;;;5014885;28;20030;-55
2023/01/13 14:57:30;;;;;;;48.90;40.97;;;11.40;1.00;;;;;;5015625;28;20120;-54
2023/01/13 15:00:13;;;;;;;51.58;40.03;;;11.40;1.00;;;;;;5012791;28;20097;-54
2023/01/13 15:02:57;;;;;;;51.05;40.05;;;11.30;1.00;;;;;;5013713;28;20030;-53
2023/01/13 15:05:25;;;;;;;50.63;39.45;;;11.20;1.00;;;;;;5001881;28;20096;-52
2023/01/13 15:07:56;;;;;;;48.90;41.00;;;11.20;1.00;;;;;;5015202;28;20116;-53
2023/01/13 15:10:26;;;;;;;46.80;37.80;;;11.30;1.00;;;;;;5014586;28;20030;-54
2023/01/13 15:12:54;;;;;;;47.83;38.92;;;11.20;1.00;;;;;;5013765;28;20022;-54
2023/01/13 15:15:31;;;;;;;49.90;40.38;;;11.20;1.00;;;;;;5013444;28;20502;-55
2023/01/13 15:21:18;;;;;;;47.22;37.28;;;11.10;1.00;;;;;;5011824;28;20047;-54
2023/01/13 15:23:46;;;;;;;48.55;36.70;;;11.00;1.00;;;;;;5014174;28;20483;-55
2023/01/13 15:26:24;;;;;;;48.30;38.42;;;10.90;1.00;;;;;;5015185;28;20048;-53
2023/01/13 15:28:50;;;;;;;41.92;35.60;;;11.00;1.00;;;;;;5015301;28;20022;-51
2023/01/13 15:31:16;;;;;;;46.78;36.17;;;11.10;1.00;;;;;;5015323;28;20057;-55
2023/01/13 15:33:42;;;;;;;44.45;34.92;;;11.00;1.00;;;;;;5014712;28;20021;-50
2023/01/13 15:36:30;;;;;;;43.35;36.58;;;10.80;1.00;;;;;;5014905;28;20101;-52
2023/01/13 15:38:56;;;;;;;45.05;36.05;;;11.00;1.00;;;;;;5015025;28;20010;-52
2023/01/13 15:46:51;;;;;;;45.75;37.72;;;10.90;1.00;;;;;;5000409;28;20150;-50
2023/01/13 15:49:25;;;;;;;44.75;34.58;;;10.90;1.00;;;;;;5013432;28;20025;-51
2023/01/13 15:51:51;;;;;;;43.97;35.08;;;11.00;1.00;;;;;;5014960;28;20110;-52
2023/01/13 15:54:18;;;;;;;47.05;37.03;;;11.00;1.00;;;;;;5014605;28;20114;-51
2023/01/13 15:56:45;;;;;;;44.78;36.38;;;11.00;1.00;;;;;;4997054;28;20382;-52
2023/01/13 15:59:22;;;;;;;47.53;36.28;;;10.90;1.00;;;;;;5014616;28;20055;-54
2023/01/13 16:01:48;;;;;;;43.40;35.92;;;11.00;1.00;;;;;;5014790;28;20034;-50
2023/01/13 16:04:13;;;;;;;47.92;35.67;;;11.00;1.00;;;;;;5014421;28;20411;-50
2023/01/13 16:06:39;;;;;;;49.10;35.65;;;11.00;1.00;;;;;;5014782;28;20034;-51
2023/01/13 16:09:06;;;;;;;45.63;35.17;;;10.90;1.00;;;;;;5014589;28;20018;-54
2023/01/13 16:11:32;;;;;;;46.08;37.15;;;10.90;1.00;;;;;;5014432;28;20395;-53
2023/01/13 16:13:58;;;;;;;45.10;36.83;;;10.80;1.00;;;;;;5014234;28;20037;-54
2023/01/13 16:16:26;;;;;;;44.20;36.22;;;10.80;1.00;;;;;;5014454;28;20042;-55
2023/01/13 16:18:52;;;;;;;47.50;35.75;;;10.80;1.00;;;;;;5012239;28;20045;-51
2023/01/13 16:21:19;;;;;;;41.45;34.05;;;10.80;1.00;;;;;;5014305;28;20034;-50
2023/01/13 16:23:46;;;;;;;44.28;34.70;;;10.80;1.00;;;;;;5014214;28;20022;-51
2023/01/13 16:26:17;;;;;;;42.85;34.03;;;10.70;1.00;;;;;;4996333;28;20033;-52
2023/01/13 16:28:42;;;;;;;44.08;34.33;;;10.70;1.00;;;;;;5006321;28;20030;-54
2023/01/13 16:31:36;;;;;;;45.47;34.17;;;10.70;1.00;;;;;;5013886;28;20042;-49
2023/01/13 16:34:04;;;;;;;42.90;33.17;;;10.70;1.00;;;;;;4988742;28;20500;-53
2023/01/13 16:36:34;;;;;;;42.42;32.60;;;10.70;1.00;;;;;;5013316;28;20026;-52
2023/01/13 16:39:19;;;;;;;44.55;33.28;;;10.70;1.00;;;;;;5013883;28;20047;-50
2023/01/13 16:41:51;;;;;;;;;;;10.60;1.00;;;;;;5006690;28;20023;-53
2023/01/13 16:44:17;;;;;;;41.20;32.65;;;10.50;1.00;;;;;;4976180;28;19917;-56
2023/01/13 16:46:44;;;;;;;37.67;31.95;;;10.50;1.00;;;;;;5008800;28;20487;-52
2023/01/13 16:49:12;;;;;;;39.72;32.47;;;10.50;1.00;;;;;;4996160;28;20541;-51
2023/01/13 16:51:38;;;;;;;40.17;32.25;;;10.40;1.00;;;;;;5014071;28;20061;-50
2023/01/13 16:54:04;;;;;;;38.53;32.42;;;10.30;1.00;;;;;;5013873;28;20018;-50
2023/01/13 16:56:31;;;;;;;41.35;32.78;;;10.30;1.00;;;;;;5013793;28;20037;-50
2023/01/13 16:59:02;;;;;;;42.35;34.10;;;10.40;1.00;;;;;;5013897;28;20022;-52
2023/01/13 17:01:30;;;;;;;45.05;35.38;;;10.10;1.00;;;;;;4995858;28;20434;-52
2023/01/13 17:03:58;;;;;;;46.00;33.63;;;10.30;1.00;;;;;;5013801;28;20113;-53
2023/01/13 17:06:38;;;;;;;46.33;34.33;;;10.30;1.00;;;;;;5013516;28;20117;-51
2023/01/13 17:09:16;;;;;;;38.40;32.35;;;10.30;1.00;;;;;;5013726;28;20033;-50
2023/01/13 17:11:42;;;;;;;43.08;34.85;;;10.40;1.00;;;;;;5013684;28;20034;-50
2023/01/13 17:14:08;;;;;;;42.38;33.65;;;10.40;1.00;;;;;;5013426;28;20037;-52
2023/01/13 17:16:35;;;;;;;39.47;33.40;;;10.30;1.00;;;;;;5013455;28;20034;-52
2023/01/13 17:19:02;;;;;;;41.73;32.07;;;10.30;1.00;;;;;;5013640;28;20033;-51
2023/01/13 17:21:29;;;;;;;40.03;33.13;;;10.20;1.00;;;;;;5013623;28;20040;-51
2023/01/13 17:23:55;;;;;;;43.73;32.20;;;10.20;1.00;;;;;;5013228;28;20460;-50
2023/01/13 17:26:37;;;;;;;38.08;32.10;;;10.10;1.00;;;;;;5013081;28;20040;-51
2023/01/13 17:29:05;;;;;;;43.07;33.43;;;10.20;1.00;;;;;;5013388;28;20026;-52
2023/01/13 17:31:34;;;;;;;39.53;33.33;;;10.20;1.00;;;;;;5003512;28;20387;-51
2023/01/13 17:34:22;;;;;;;43.97;33.87;;;10.00;1.00;;;;;;5013333;28;20029;-53
2023/01/13 17:36:48;;;;;;;41.47;32.70;;;10.00;1.00;;;;;;5012899;28;20535;-51
2023/01/13 17:42:37;;;;;;;38.97;34.55;;;10.10;1.00;;;;;;4998076;28;20053;-53
2023/01/13 17:45:04;;;;;;;41.50;35.57;;;9.90;1.00;;;;;;4990027;28;20060;-55
2023/01/13 17:47:31;;;;;;;43.73;36.03;;;10.10;1.00;;;;;;4995161;28;20025;-50
2023/01/13 17:49:57;;;;;;;43.93;35.07;;;10.00;1.00;;;;;;5012705;28;20030;-54
2023/01/13 17:52:23;;;;;;;43.97;34.67;;;10.00;1.00;;;;;;5012595;28;20116;-52
2023/01/13 17:54:50;;;;;;;44.60;35.90;;;10.00;1.00;;;;;;5012929;28;20383;-54
2023/01/13 17:57:16;;;;;;;41.37;35.00;;;9.80;1.00;;;;;;5012682;28;20029;-50
2023/01/13 17:59:42;;;;;;;44.10;35.70;;;10.00;1.00;;;;;;5012158;28;20117;-55
2023/01/13 18:02:11;;;;;;;38.87;34.17;;;9.80;1.00;;;;;;5012521;28;20241;-50
2023/01/13 18:04:38;;;;;;;45.00;35.80;;;10.00;1.00;;;;;;5012437;28;20022;-54
2023/01/13 18:07:05;;;;;;;46.17;35.83;;;10.00;1.00;;;;;;5012632;28;20035;-51
2023/01/13 18:09:32;;;;;;;44.63;35.83;;;9.90;1.00;;;;;;5012108;28;20479;-52
2023/01/13 18:11:59;;;;;;;45.92;36.70;;;9.90;1.00;;;;;;5011764;28;20053;-55
2023/01/13 18:14:25;;;;;;;45.50;36.88;;;10.00;1.00;;;;;;5012293;28;20033;-55
2023/01/13 18:16:51;;;;;;;43.63;35.73;;;9.90;1.00;;;;;;5012149;28;20030;-51
2023/01/13 18:27:43;;;;;;;43.05;33.55;;;9.70;1.00;;;;;;5012315;28;20177;-51
2023/01/13 18:30:12;;;;;;;40.20;31.83;;;9.80;1.00;;;;;;5012194;28;20120;-51
2023/01/13 18:32:39;;;;;;;38.60;31.63;;;9.60;1.00;;;;;;5011818;28;20042;-50
2023/01/13 18:35:09;;;;;;;39.83;33.83;;;9.80;1.00;;;;;;5012230;28;20172;-51
2023/01/13 18:37:38;;;;;;;38.20;31.40;;;9.80;1.00;;;;;;5011816;28;20033;-52
2023/01/13 18:40:08;;;;;;;38.37;31.33;;;9.80;1.00;;;;;;5011720;28;20038;-53
2023/01/13 18:42:52;;;;;;;39.33;31.37;;;9.80;1.00;;;;;;5011918;28;20049;-54
2023/01/13 18:45:23;;;;;;;36.72;31.15;;;9.80;1.00;;;;;;5012044;28;20073;-52
2023/01/13 18:47:51;;;;;;;41.07;31.83;;;9.70;1.00;;;;;;4998251;28;20026;-50
2023/01/13 18:50:17;;;;;;;42.50;32.50;;;9.90;1.00;;;;;;5011714;28;20116;-52
2023/01/13 18:52:44;;;;;;;37.47;30.80;;;9.90;1.00;;;;;;5011891;28;20099;-52
2023/01/13 18:55:10;;;;;;;33.63;29.60;;;9.80;1.00;;;;;;5011955;28;20036;-51
2023/01/13 18:57:38;;;;;;;38.43;31.17;;;9.80;1.00;;;;;;5012547;28;20061;-52
2023/01/13 19:00:04;;;;;;;38.30;29.53;;;9.80;1.00;;;;;;5011863;28;20022;-55
2023/01/13 19:02:31;;;;;;;35.17;29.50;;;9.80;1.00;;;;;;5011680;28;20411;-50
2023/01/13 19:04:57;;;;;;;34.87;30.13;;;9.90;1.00;;;;;;5002081;28;20030;-49
2023/01/13 19:07:27;;;;;;;41.50;31.57;;;9.90;1.00;;;;;;5009438;28;20022;-55
2023/01/13 19:09:58;;;;;;;35.60;29.43;;;9.90;1.00;;;;;;5009730;28;20030;-53
2023/01/13 19:12:26;;;;;;;36.03;30.07;;;9.80;1.00;;;;;;5008542;28;20018;-52
2023/01/13 19:15:00;;;;;;;39.20;30.70;;;9.90;1.00;;;;;;5011790;28;20021;-52
2023/01/13 19:17:32;;;;;;;39.40;31.27;;;9.80;1.00;;;;;;5011921;28;20036;-53
2023/01/13 19:19:58;;;;;;;39.53;31.80;;;9.60;1.00;;;;;;5007508;28;20050;-53
2023/01/13 19:22:32;;;;;;;37.70;30.90;;;9.50;1.00;;;;;;4989482;28;20088;-56
2023/01/13 19:25:01;;;;;;;33.88;30.02;;;9.60;1.00;;;;;;5014938;28;20082;-52
2023/01/13 19:27:28;;;;;;;40.43;32.57;;;9.60;1.00;;;;;;5015359;28;20033;-52
2023/01/13 19:30:10;;;;;;;38.07;33.03;;;9.30;1.00;;;;;;5015371;28;20065;-55
2023/01/13 19:32:37;;;;;;;38.37;32.63;;;9.60;1.00;;;;;;5006932;28;20053;-52
2023/01/13 19:35:04;;;;;;;38.40;32.77;;;9.70;1.00;;;;;;5013263;28;20127;-56
2023/01/13 19:37:33;;;;;;;39.57;32.27;;;9.70;1.00;;;;;;5012954;28;20029;-54
2023/01/13 19:40:49;;;;;;;38.43;33.13;;;9.60;1.00;;;;;;5012300;28;20026;-55
2023/01/13 19:46:02;;;;;;;42.43;33.27;;;9.70;1.00;;;;;;5015120;28;20103;-55
2023/01/13 19:48:29;;;;;;;41.77;32.50;;;9.70;1.00;;;;;;5014780;28;20479;-54
2023/01/13 19:50:58;;;;;;;44.00;32.70;;;9.70;1.00;;;;;;5014686;28;20034;-52
2023/01/13 19:53:26;;;;;;;43.23;32.90;;;9.70;1.00;;;;;;5005954;28;20022;-50
2023/01/13 19:55:53;;;;;;;40.37;32.37;;;9.70;1.00;;;;;;5001014;28;20494;-50
2023/01/13 19:58:24;;;;;;;41.37;33.67;;;9.50;1.00;;;;;;5014676;28;20068;-52
2023/01/13 20:00:52;;;;;;;41.93;33.23;;;9.60;1.00;;;;;;5014455;28;20030;-54
2023/01/13 20:03:24;;;;;;;38.73;32.33;;;9.60;1.00;;;;;;5014814;28;20050;-55
2023/01/13 20:05:52;;;;;;;41.93;32.63;;;9.50;1.00;;;;;;4995707;28;20029;-51
2023/01/13 20:08:20;;;;;;;45.23;32.57;;;9.50;1.00;;;;;;5004628;28;20488;-52
2023/01/13 20:10:49;;;;;;;40.10;32.33;;;9.60;1.00;;;;;;5010771;28;20420;-51
2023/01/13 20:13:15;;;;;;;42.00;33.60;;;9.60;1.00;;;;;;5014576;28;20037;-53
2023/01/13 20:15:42;;;;;;;40.47;31.37;;;9.50;1.00;;;;;;5014233;28;20491;-54
2023/01/13 20:18:08;;;;;;;38.13;32.43;;;9.50;1.00;;;;;;5014323;28;20026;-51
2023/01/13 20:20:36;;;;;;;40.87;32.17;;;9.50;1.00;;;;;;4996693;28;20026;-53
2023/01/13 20:23:03;;;;;;;42.23;33.77;;;9.50;1.00;;;;;;5013894;28;20034;-54
2023/01/13 20:25:29;;;;;;;40.57;33.13;;;9.50;1.00;;;;;;5014522;28;20050;-55
2023/01/13 20:27:57;;;;;;;39.47;32.30;;;9.60;1.00;;;;;;5013731;28;20049;-50
2023/01/13 20:30:24;;;;;;;42.40;32.50;;;9.50;1.00;;;;;;5013912;28;20049;-52
2023/01/13 20:32:51;;;;;;;36.93;31.50;;;9.50;1.00;;;;;;5014232;28;20126;-53
2023/01/13 20:35:17;;;;;;;37.90;32.63;;;9.50;1.00;;;;;;5013342;28;20031;-52
2023/01/13 20:37:44;;;;;;;38.53;31.53;;;9.50;1.00;;;;;;4996470;28;20121;-51
2023/01/13 20:40:13;;;;;;;39.37;32.00;;;9.50;1.00;;;;;;5014184;28;20037;-49
2023/01/13 20:42:46;;;;;;;38.23;30.53;;;9.50;1.00;;;;;;5013812;28;20463;-54
2023/01/13 20:45:18;;;;;;;38.47;31.33;;;9.40;1.00;;;;;;5013683;28;20204;-52
2023/01/13 20:47:45;;;;;;;37.80;32.03;;;9.40;1.00;;;;;;5013850;28;20022;-54
2023/01/13 20:50:12;;;;;;;40.93;31.80;;;9.30;1.00;;;;;;5013683;28;20030;-54
2023/01/13 20:52:39;;;;;;;38.73;30.53;;;9.40;1.00;;;;;;5013663;28;20430;-50
2023/01/13 20:55:07;;;;;;;35.73;30.27;;;9.40;1.00;;;;;;4996082;28;20034;-50
2023/01/13 20:57:34;;;;;;;39.00;30.33;;;9.40;1.00;;;;;;5013711;28;20022;-50
2023/01/13 21:00:04;;;;;;;38.33;31.23;;;9.50;1.00;;;;;;5013273;28;20046;-55
2023/01/13 21:02:30;;;;;;;41.00;30.57;;;9.40;1.00;;;;;;5013709;28;20022;-55
2023/01/13 21:04:57;;;;;;;39.93;30.23;;;9.40;1.00;;;;;;5013342;28;20067;-52
2023/01/13 21:07:38;;;;;;;37.80;30.27;;;9.20;1.00;;;;;;5013415;28;20022;-55
2023/01/13 21:10:10;;;;;;;39.13;29.73;;;9.30;1.00;;;;;;4995881;28;20025;-51
2023/01/13 21:15:21;;;;;;;39.42;29.80;;;9.40;1.00;;;;;;5013720;28;20049;-51
2023/01/13 21:20:37;;;;;;;38.17;30.43;;;9.40;1.00;;;;;;5013518;28;20037;-53
2023/01/13 21:23:04;;;;;;;39.33;30.53;;;9.40;1.00;;;;;;5013185;28;20375;-55
2023/01/13 21:25:30;;;;;;;36.83;30.30;;;9.30;1.00;;;;;;5013204;28;20029;-53
2023/01/13 21:28:07;;;;;;;40.13;29.90;;;9.30;1.00;;;;;;4981913;28;20098;-52
2023/01/13 21:30:34;;;;;;;36.60;29.83;;;9.30;1.00;;;;;;5000676;28;20033;-54
2023/01/13 21:33:02;;;;;;;37.40;28.57;;;9.30;1.00;;;;;;5013113;28;20375;-54
2023/01/13 21:35:28;;;;;;;36.63;28.57;;;9.30;1.00;;;;;;5012930;28;20064;-52
2023/01/13 21:37:54;;;;;;;34.83;28.87;;;9.30;1.00;;;;;;5013088;28;20206;-52
2023/01/13 21:40:19;;;;;;;40.67;29.33;;;9.30;1.00;;;;;;5012971;28;20022;-55
2023/01/13 21:48:13;;;;;;;38.27;28.93;;;9.10;1.00;;;;;;5012445;28;20217;-55
2023/01/13 21:50:39;;;;;;;36.40;27.73;;;9.10;1.00;;;;;;5012610;28;20160;-52
2023/01/13 21:53:06;;;;;;;39.77;28.07;;;9.20;1.00;;;;;;5012756;28;20515;-54
2023/01/13 21:55:34;;;;;;;36.47;29.40;;;9.20;1.00;;;;;;5012669;28;20475;-52
2023/01/13 21:58:11;;;;;;;33.43;26.87;;;9.20;1.00;;;;;;5012887;28;20157;-52
2023/01/13 22:00:38;;;;;;;33.53;27.13;;;9.30;1.00;;;;;;5012638;28;20045;-51
2023/01/13 22:03:05;;;;;;;36.17;29.03;;;9.30;1.00;;;;;;5012566;28;20025;-54
2023/01/13 22:05:31;;;;;;;35.43;27.90;;;9.10;1.00;;;;;;5012436;28;20471;-51
2023/01/13 22:07:57;;;;;;;40.27;28.67;;;9.10;1.00;;;;;;5012513;28;20076;-51
2023/01/13 22:10:26;;;;;;;36.03;27.83;;;8.90;1.00;;;;;;5012313;28;20088;-51
2023/01/13 22:12:53;;;;;;;33.97;26.87;;;8.90;1.00;;;;;;5012351;28;20084;-52
2023/01/13 22:15:19;;;;;;;33.90;27.23;;;8.90;1.00;;;;;;5012345;28;20033;-49
2023/01/13 22:17:47;;;;;;;35.37;29.27;;;9.10;1.00;;;;;;5012333;28;20522;-55
2023/01/13 22:20:13;;;;;;;35.93;27.83;;;9.00;1.00;;;;;;5012328;28;20440;-55
2023/01/13 22:22:39;;;;;;;36.60;26.10;;;9.00;1.00;;;;;;5012300;28;20034;-51
2023/01/13 22:25:07;;;;;;;35.60;27.00;;;8.90;1.00;;;;;;5012339;28;20034;-51
2023/01/13 22:27:39;;;;;;;31.97;25.60;;;8.80;1.00;;;;;;5012221;28;20049;-49
2023/01/13 22:30:17;;;;;;;34.17;26.23;;;9.00;1.00;;;;;;5004854;28;20043;-54
2023/01/13 22:32:43;;;;;;;33.50;25.87;;;9.00;1.00;;;;;;5009801;28;20387;-56
2023/01/13 22:35:10;;;;;;;34.90;26.23;;;8.90;1.00;;;;;;5012212;28;20101;-51
2023/01/13 22:37:36;;;;;;;36.47;25.27;;;8.80;1.00;;;;;;5012157;28;20030;-52
2023/01/13 22:40:04;;;;;;;33.43;25.73;;;8.80;1.00;;;;;;5012325;28;20092;-54
2023/01/13 22:42:29;;;;;;;34.77;26.10;;;8.80;1.00;;;;;;5012091;28;20498;-52
2023/01/13 22:44:55;;;;;;;32.93;25.87;;;8.90;1.00;;;;;;5011954;28;20086;-51
2023/01/13 22:47:21;;;;;;;33.20;25.83;;;9.00;1.00;;;;;;5012192;28;20022;-52
2023/01/13 22:49:46;;;;;;;34.03;25.87;;;9.00;1.00;;;;;;5012006;28;20065;-51
2023/01/13 22:52:15;;;;;;;32.93;26.03;;;9.00;1.00;;;;;;5012276;28;20042;-53
2023/01/13 22:54:41;;;;;;;33.20;25.27;;;8.90;1.00;;;;;;5004944;28;20037;-54
2023/01/13 22:57:07;;;;;;;34.50;26.53;;;8.90;1.00;;;;;;5012029;28;20026;-53
2023/01/13 22:59:32;;;;;;;34.33;25.63;;;8.90;1.00;;;;;;5014829;28;20116;-53
2023/01/13 23:01:58;;;;;;;34.07;26.20;;;8.80;1.00;;;;;;5016032;28;20099;-52
2023/01/13 23:04:24;;;;;;;32.43;25.67;;;8.70;1.00;;;;;;5015973;28;20030;-51
2023/01/13 23:06:49;;;;;;;33.90;26.27;;;8.80;1.00;;;;;;5015907;28;20034;-57
2023/01/13 23:09:15;;;;;;;32.43;26.00;;;8.80;1.00;;;;;;5016021;28;20018;-51
2023/01/13 23:11:41;;;;;;;39.80;26.80;;;8.90;1.00;;;;;;5015777;28;20442;-52
2023/01/13 23:14:09;;;;;;;32.60;25.63;;;8.70;1.00;;;;;;5015959;28;20418;-52
2023/01/13 23:16:37;;;;;;;31.10;24.93;;;8.80;1.00;;;;;;5015767;28;20026;-53
2023/01/13 23:19:04;;;;;;;31.00;24.40;;;8.80;1.00;;;;;;5015673;28;20053;-54
2023/01/13 23:21:33;;;;;;;29.37;23.50;;;8.90;1.00;;;;;;5015654;28;20065;-52
2023/01/13 23:23:59;;;;;;;35.07;25.57;;;8.90;1.00;;;;;;5015418;28;20045;-53
2023/01/13 23:26:26;;;;;;;29.63;24.07;;;8.90;1.00;;;;;;5014176;28;20026;-53
2023/01/13 23:28:52;;;;;;;34.00;25.47;;;8.80;1.00;;;;;;5009447;28;20033;-55
2023/01/13 23:31:21;;;;;;;31.00;23.83;;;8.80;1.00;;;;;;5015330;28;20037;-51
2023/01/13 23:33:47;;;;;;;37.80;24.70;;;8.80;1.00;;;;;;5015323;28;20026;-51
2023/01/13 23:36:19;;;;;;;31.67;23.57;;;8.80;1.00;;;;;;5015126;28;20041;-53
2023/01/13 23:38:45;;;;;;;30.83;25.67;;;8.80;1.00;;;;;;5015280;28;20037;-50